EKBI/BLL METAR and TAF weather

Enter ICAO airport designator
Station Type Date Time Source
EKBI METAR 2019/11/18 14:20 UTC NOAA

EKBI 181420Z AUTO VRB01KT 1700 -RA BR OVC002/// 08/08 Q1003


Station Type Date Time Source
EKBI Decoded METAR 2019/11/18 14:20 UTC NOAA

Billund Lufthavn, Denmark (EKBI) 55-44N 009-10E 79M
Nov 18, 2019 - 09:20 AM EST / 2019.11.18 1420 UTC
Wind: Variable at 1 MPH (1 KT):0
Visibility: 1 mile(s):0
Sky conditions: overcast
Weather: light rain; mist
Temperature: 46 F (8 C)
Dew Point: 46 F (8 C)
Relative Humidity: 100%
Pressure (altimeter): 29.62 in. Hg (1003 hPa)
ob: EKBI 181420Z AUTO VRB01KT 1700 -RA BR OVC002/// 08/08 Q1003
cycle: 14

Station Type Date Time Source
EKBI TAF 2019/11/18 12:31 UTC NOAA

TAF EKBI 181111Z 1812/1912 10005KT 1000 BCFG BR BKN002
TEMPO 1812/1912 5000 DZ BKN006

Example: see airport list